Jepson Prairie Reserve, California Weather observations

Data are for 10 minute period ending at time listed.
 Day   Time   Solar   Ave.   Ave.  Ave.  Vector  Max.   Baro.   Total    
  of    of     Rad.   Air    Rel.  Wind   Wind   Wind  Press.  Precip.   
Year   Day            Temp.  Hum.  Speed  Dir.   Gust                    
2017   (PST)  Kw/m2    F      %     mph   deg.    mph    mb.     in.     
-------------------------------------------------------------------------
 112    6:10   0.08   51.9    80   14.1   223    17.1   1013.5    0.00 
 112    6:20   0.12   52.7    78   12.3   222    16.1   1013.5    0.00 
 112    6:30   0.18   53.6    75   11.1   220    15.1   1013.5    0.00 
 112    6:40   0.27   55.4    73    9.5   214    14.8   1013.5    0.00 
 112    6:50   0.27   57.0    67   11.9   221    17.6   1013.5    0.00 
 112    7:00   0.12   56.5    66   13.3   225    19.1   1013.5    0.00 
 112    7:10   0.14   56.0    69   12.4   225    17.8   1013.5    0.00 
 112    7:20   0.25   57.0    66   14.0   230    18.9   1013.9    0.00 
 112    7:30   0.29   58.2    62   13.5   230    18.6   1013.9    0.00 
 112    7:40   0.25   58.6    60   14.7   222    20.8   1013.9    0.00 
 112    7:50   0.23   58.3    62   12.4   220    15.0   1013.9    0.00 
 112    8:00   0.24   58.3    61   15.2   232    19.2   1013.9    0.00 
 112    8:10   0.28   58.3    64   16.4   229    19.9   1013.9    0.00 
 112    8:20   0.32   58.4    60   14.8   223    20.8   1013.9    0.00 
 112    8:30   0.29   58.7    59   14.3   229    18.9   1013.9    0.00 
 112    8:40   0.26   58.8    59   10.9   223    15.5   1013.9    0.00 
 112    8:50   0.37   59.4    58   10.8   220    16.0   1013.9    0.00 
 112    9:00   0.46   60.3    58   11.3   214    16.7   1013.9    0.00 
 112    9:10   0.34   60.5    56   13.8   221    18.5   1013.9    0.00 
 112    9:20   0.38   60.4    56   16.1   222    21.7   1013.9    0.00 
 112    9:30   0.49   61.3    55   16.3   218    21.0   1013.9    0.00 
 112    9:40   0.58   61.5    56   17.1   221    22.9   1013.9    0.00 
 112    9:50   0.41   62.0    57   18.1   223    23.5   1013.9    0.00 
 112   10:00   0.59   61.9    56   18.8   225    24.5   1013.9    0.00 
 112   10:10   0.61   62.7    56   18.9   224    24.9   1013.9    0.00 
 112   10:20   0.52   62.6    57   18.0   223    22.8   1013.9    0.00 
 112   10:30   0.54   62.7    59   17.6   225    23.3   1013.9    0.00 
 112   10:40   0.53   62.8    60   17.0   226    21.0   1014.2    0.00 
 112   10:50   0.64   63.2    60   16.9   228    21.5   1013.9    0.00 
 112   11:00   0.42   62.4    61   16.9   231    21.5   1013.9    0.00 
 112   11:10   0.56   63.0    62   15.3   235    19.9   1013.9    0.00 
 112   11:20   0.77   63.9    59   15.6   228    20.8   1013.9    0.00 
 112   11:30   0.66   64.2    59   14.6   226    18.6   1013.9    0.00 
 112   11:40   0.61   64.7    62   14.6   226    18.6   1014.2    0.00 
 112   11:50   0.64   65.4    63   14.4   230    18.7   1013.9    0.00 
 112   12:00   0.70   66.5    64   15.5   223    20.5   1013.9    0.00 
 112   12:10   0.66   66.0    65   16.6   228    20.8   1013.9    0.00 
 112   12:20   0.64   66.4    65   15.1   232    20.1   1013.9    0.00 
 112   12:30   0.57   66.3    66   14.5   227    19.4   1013.9    0.00 
 112   12:40   0.65   66.7    66   14.5   229    20.6   1013.9    0.00 
 112   12:50   0.58   67.2    66   16.1   220    21.1   1013.9    0.00 
 112   13:00   0.54   66.7    66   15.2   217    19.0   1013.9    0.00 
 112   13:10   0.46   66.5    66   15.7   222    22.1   1013.9    0.00 
 112   13:20   0.41   66.4    68   14.4   216    19.1   1013.9    0.00 
 112   13:30   0.44   66.4    67   16.9   226    21.6   1013.9    0.00 
 112   13:40   0.45   66.4    66   15.6   226    21.4   1013.9    0.00 
 112   13:50   0.42   66.3    65   17.3   230    22.4   1013.9    0.00 
 112   14:00   0.41   66.3    65   16.5   225    22.4   1013.9    0.00 
 112   14:10   0.43   66.3    66   16.5   228    22.8   1013.9    0.00 
 112   14:20   0.43   66.2    64   18.7   228    24.0   1013.5    0.00 
 112   14:30   0.42   66.3    65   16.9   229    22.1   1013.5    0.00 
 112   14:40   0.39   66.3    67   14.7   231    19.8   1013.2    0.00 
 112   14:50   0.34   65.6    66   15.2   228    19.9   1013.2    0.00 
 112   15:00   0.27   65.1    67   14.2   230    19.1   1012.9    0.00 
 112   15:10   0.24   64.5    69   15.4   226    19.2   1012.9    0.00 
 112   15:20   0.26   64.6    70   14.4   223    18.6   1012.9    0.00 
 112   15:30   0.19   64.2    70   14.8   220    17.8   1012.5    0.00 
 112   15:40   0.21   64.1    72   15.4   222    20.2   1012.5    0.00 
 112   15:50   0.20   64.2    72   15.8   226    20.2   1012.2    0.00 
 112   16:00   0.19   63.8    73   15.7   220    22.1   1012.2    0.00 
 112   16:10   0.18   63.6    72   18.1   226    23.7   1012.5    0.00 
 112   16:20   0.17   63.3    72   17.6   224    23.5   1012.9    0.00 
 112   16:30   0.15   62.9    73   16.4   219    22.0   1012.5    0.00 
 112   16:40   0.15   62.8    72   14.8   229    19.1   1012.5    0.00 
 112   16:50   0.12   62.1    70   16.7   226    24.9   1012.5    0.00 
 112   17:00   0.11   61.2    70   18.5   220    23.5   1012.2    0.00 
 112   17:10   0.10   60.8    74   18.4   227    24.2   1011.9    0.00 
 112   17:20   0.11   60.7    74   19.7   228    24.4   1011.9    0.00 
 112   17:30   0.13   60.9    73   17.8   223    24.8   1011.9    0.00 
 112   17:40   0.09   60.8    72   20.4   226    26.5   1012.2    0.00 
 112   17:50   0.09   60.6    74   16.8   228    22.3   1011.9    0.00 
 112   18:00   0.12   60.6    74   16.2   226    22.3   1011.9    0.00 
 112   18:10   0.13   61.1    71   18.2   224    25.4   1011.9    0.00 
 112   18:20   0.08   60.7    69   17.4   223    23.9   1011.9    0.00 
 112   18:30   0.06   60.1    70   11.9   215    17.5   1012.2    0.00 
 112   18:40   0.02   58.8    74   11.8   215    14.7   1011.9    0.00 
 112   18:50   0.01   57.8    76   11.4   216    14.7   1011.9    0.00 
 112   19:00   0.00   56.9    77   10.4   208    14.4   1011.9    0.00 
 112   19:10   0.00   56.0    77    9.7   196    14.6   1011.5    0.00 
 112   19:20   0.00   55.2    78   13.7   203    18.0   1011.9    0.00 
 112   19:30   0.00   55.4    76   12.4   209    16.8   1011.9    0.00 
 112   19:40   0.00   55.8    74   14.2   210    18.9   1011.9    0.00 
 112   19:50   0.00   56.0    72   13.5   215    18.2   1011.9    0.00 
 112   20:00   0.00   55.7    74   15.9   208    20.2   1011.9    0.00 
 112   20:10   0.00   55.1    76   17.0   211    20.5   1011.9    0.00 
 112   20:20   0.00   54.5    76   16.6   214    20.3   1012.2    0.00 
 112   20:30   0.00   54.1    78   15.3   213    18.6   1011.9    0.00 
 112   20:40   0.00   53.3    80   13.2   206    16.4   1012.2    0.00 
 112   20:50   0.00   52.7    81   12.9   212    15.9   1011.9    0.00 
 112   21:00   0.00   52.3    82   15.1   210    19.1   1011.9    0.00 
 112   21:10   0.00   52.2    81   16.9   216    22.7   1011.9    0.00 
 112   21:20   0.00   52.6    78   15.8   222    20.0   1011.9    0.00 
 112   21:30   0.00   52.4    78   15.7   221    20.9   1011.5    0.00 
 112   21:40   0.00   51.9    80   16.4   214    20.0   1011.5    0.00 
 112   21:50   0.00   51.5    84   17.6   214    20.9   1011.5    0.00 
 112   22:00   0.00   51.4    85   16.2   218    19.5   1011.5    0.00 
 112   22:10   0.00   51.1    86   14.8   219    20.3   1011.9    0.00 
 112   22:20   0.00   50.9    86   15.8   216    20.0   1011.9    0.00 
 112   22:30   0.00   51.0    86   15.1   214    19.6   1011.5    0.00 
 112   22:40   0.00   51.0    87   14.0   211    17.9   1011.5    0.00 
 112   22:50   0.00   50.7    87   12.8   204    16.4   1011.5    0.00 
 112   23:00   0.00   50.2    88   13.5   193    17.3   1011.5    0.00 
 112   23:10   0.00   50.3    89   15.5   196    18.3   1011.5    0.00 
 112   23:20   0.00   50.6    89   17.1   202    20.5   1011.5    0.00 
 112   23:30   0.00   50.6    88   16.0   200    21.3   1011.5    0.00 
 112   23:40   0.00   50.6    88   15.6   200    18.6   1011.5    0.00 
 112   23:50   0.00   50.5    88   15.2   202    18.9   1011.5    0.00 
 113    0:00   0.00   50.5    89   16.3   209    19.6   1011.5    0.00 
 113    0:10   0.00   50.6    88   18.4   216    23.5   1011.2    0.00 
 113    0:20   0.00   50.6    87   19.2   220    23.4   1011.2    0.00 
 113    0:30   0.00   50.7    87   19.5   223    25.6   1011.2    0.00 
 113    0:40   0.00   50.6    87   20.3   218    26.0   1011.2    0.00 
 113    0:50   0.00   50.7    87   20.4   215    26.9   1010.8    0.00 
 113    1:00   0.00   50.8    87   18.6   214    23.7   1010.8    0.00 
 113    1:10   0.00   50.8    87   16.8   208    21.6   1010.8    0.00 
 113    1:20   0.00   50.8    87   18.3   205    24.0   1010.8    0.00 
 113    1:30   0.00   51.1    86   17.2   208    24.3   1010.8    0.00 
 113    1:40   0.00   51.5    84   18.1   209    23.7   1010.8    0.00 
 113    1:50   0.00   51.5    84   17.0   205    22.4   1010.8    0.00 
 113    2:00   0.00   51.4    85   14.0   208    19.6   1010.8    0.00 
 113    2:10   0.00   51.5    84   17.6   215    23.5   1010.5    0.00 
 113    2:20   0.00   51.5    83   16.6   217    22.7   1010.5    0.00 
 113    2:30   0.00   51.4    83   14.6   219    21.6   1010.5    0.00 
 113    2:40   0.00   51.3    83   13.7   216    18.6   1010.8    0.00 
 113    2:50   0.00   51.3    83   13.9   216    18.0   1010.8    0.00 
 113    3:00   0.00   51.4    83   15.7   219    21.6   1010.8    0.00 
 113    3:10   0.00   51.5    82   15.3   219    19.2   1010.8    0.00 
 113    3:20   0.00   51.5    81   15.7   219    20.6   1010.8    0.00 
 113    3:30   0.00   51.5    82   14.8   212    19.9   1010.8    0.00 
 113    3:40   0.00   51.4    82   14.6   210    18.6   1010.8    0.00 
 113    3:50   0.00   51.2    83   13.3   208    21.9   1010.8    0.00 
 113    4:00   0.00   51.1    83   15.3   212    21.3   1010.8    0.00 
 113    4:10   0.00   50.8    83   14.5   210    19.5   1010.8    0.00 
 113    4:20   0.00   50.2    84   14.7   209    18.7   1010.8    0.00 
 113    4:30   0.00   49.8    85   13.7   213    18.0   1010.8    0.00 
 113    4:40   0.00   49.4    86   13.8   218    17.6   1010.8    0.00 
 113    4:50   0.00   49.0    86   13.8   216    18.0   1010.8    0.00 
 113    5:00   0.00   48.7    87   13.5   208    17.4   1011.2    0.00 
 113    5:10   0.00   48.5    87   12.3   206    15.3   1011.5    0.00 
 113    5:20   0.00   48.6    87   12.1   212    15.3   1011.5    0.00 
 113    5:30   0.00   48.7    86   11.5   210    15.3   1011.5    0.00 
 113    5:40   0.02   48.7    86   11.7   212    14.7   1011.5    0.00 
 113    5:50   0.03   49.2    85   12.1   216    14.9   1011.9    0.00 
 113    6:00   0.06   49.5    84   11.0   212    14.9   1011.9    0.00 

Return to Jepson Prairie Reserve graphs page.


Western Regional Climate Center,wrcc@dri.edu